Time;durP1;ratioP1;P1;durP2;ratioP2;P2;SDS_P1;SDS_P2;PMS_P1;PMS_P2;Temp;Humidity;BMP_temperature;BMP_pressure;BME280_temperature;BME280_humidity;BME280_pressure;Samples;Min_cycle;Max_cycle;Signal;HPM_P1;HPM_P2
2022/03/30 00:01:04;;;;;;;15.73;4.75;;;14.20;99.90;;;;;;5032221;28;20038;-71
2022/03/30 00:03:30;;;;;;;12.10;4.05;;;14.20;99.90;;;;;;5019039;28;20041;-70
2022/03/30 00:05:57;;;;;;;17.40;4.30;;;14.20;99.90;;;;;;5019051;28;20041;-71
2022/03/30 00:08:23;;;;;;;15.93;4.60;;;14.20;99.90;;;;;;5019231;28;20483;-70
2022/03/30 00:10:49;;;;;;;17.38;4.75;;;14.20;99.90;;;;;;5033881;28;20062;-71
2022/03/30 00:13:15;;;;;;;21.45;4.78;;;14.20;99.90;;;;;;4998955;28;20038;-71
2022/03/30 00:15:42;;;;;;;17.65;4.80;;;14.20;99.90;;;;;;5032226;28;20048;-70
2022/03/30 00:18:08;;;;;;;15.68;4.68;;;14.20;99.90;;;;;;5018776;28;20041;-70
2022/03/30 00:20:34;;;;;;;15.10;4.25;;;14.10;99.90;;;;;;5034994;28;20029;-70
2022/03/30 00:23:01;;;;;;;15.88;4.10;;;14.10;99.90;;;;;;5018488;28;20421;-70
2022/03/30 00:25:27;;;;;;;15.70;4.55;;;14.10;99.90;;;;;;5031448;28;20041;-70
2022/03/30 00:27:52;;;;;;;15.20;4.38;;;14.10;99.90;;;;;;5017203;28;20029;-69
2022/03/30 00:30:20;;;;;;;14.35;3.95;;;14.10;99.90;;;;;;4997376;28;20033;-70
2022/03/30 00:32:46;;;;;;;15.40;4.18;;;14.10;99.90;;;;;;5022525;28;20536;-70
2022/03/30 00:35:14;;;;;;;15.93;4.25;;;14.10;99.90;;;;;;5005389;28;20465;-70
2022/03/30 00:37:40;;;;;;;15.85;4.80;;;14.10;99.90;;;;;;5035571;28;20041;-71
2022/03/30 00:40:11;;;;;;;14.55;4.75;;;14.10;99.90;;;;;;5016802;28;20044;-70
2022/03/30 00:42:37;;;;;;;14.40;4.43;;;14.10;99.90;;;;;;5018467;28;20042;-70
2022/03/30 00:45:12;;;;;;;14.30;4.70;;;14.10;99.90;;;;;;5018735;28;20076;-69
2022/03/30 00:47:38;;;;;;;10.40;3.90;;;14.10;99.90;;;;;;5030401;28;20076;-70
2022/03/30 00:50:11;;;;;;;17.58;4.43;;;14.00;99.90;;;;;;5018678;28;20037;-70
2022/03/30 00:52:37;;;;;;;15.85;4.25;;;14.10;99.90;;;;;;5014237;28;20041;-70
2022/03/30 00:55:05;;;;;;;17.77;5.28;;;14.00;99.90;;;;;;5016261;28;20157;-70
2022/03/30 00:57:32;;;;;;;15.73;4.43;;;14.00;99.90;;;;;;5002418;28;20033;-70
2022/03/30 01:00:00;;;;;;;15.43;4.53;;;14.00;99.90;;;;;;5031112;28;20092;-70
2022/03/30 01:02:29;;;;;;;18.73;4.72;;;14.00;99.90;;;;;;5030694;28;20987;-70
2022/03/30 01:04:55;;;;;;;14.45;4.53;;;14.00;99.90;;;;;;5012429;28;20041;-70
2022/03/30 01:07:21;;;;;;;11.68;4.07;;;13.90;99.90;;;;;;5032084;28;20030;-69
2022/03/30 01:09:47;;;;;;;16.40;4.22;;;13.90;99.90;;;;;;5012929;28;20387;-69
2022/03/30 01:12:13;;;;;;;15.85;4.78;;;13.90;99.90;;;;;;5017627;28;20108;-70
2022/03/30 01:14:40;;;;;;;13.80;4.50;;;13.90;99.90;;;;;;4998123;28;20033;-70
2022/03/30 01:17:06;;;;;;;12.70;4.68;;;13.90;99.90;;;;;;5016307;28;20095;-70
2022/03/30 01:19:34;;;;;;;12.13;4.32;;;13.90;99.90;;;;;;5028056;28;20353;-70
2022/03/30 01:22:01;;;;;;;11.82;3.90;;;13.90;99.90;;;;;;5017296;28;20122;-72
2022/03/30 01:24:28;;;;;;;19.75;4.60;;;13.90;99.90;;;;;;5019082;28;20058;-70
2022/03/30 01:26:54;;;;;;;15.15;4.97;;;13.90;99.90;;;;;;5022007;28;20068;-70
2022/03/30 01:32:25;;;;;;;17.17;5.35;;;13.90;99.90;;;;;;5018377;28;20491;-70
2022/03/30 01:34:51;;;;;;;15.05;5.00;;;13.90;99.90;;;;;;5017788;28;20476;-70
2022/03/30 01:37:18;;;;;;;10.82;4.28;;;13.80;99.90;;;;;;5031245;28;20120;-70
2022/03/30 01:39:44;;;;;;;10.57;4.22;;;13.80;99.90;;;;;;5018950;28;20046;-69
2022/03/30 01:42:10;;;;;;;14.82;4.40;;;13.80;99.90;;;;;;5012724;28;20061;-70
2022/03/30 01:44:37;;;;;;;12.05;4.20;;;13.80;99.90;;;;;;5015778;28;20057;-70
2022/03/30 01:47:04;;;;;;;13.27;4.25;;;13.70;99.90;;;;;;5014615;28;20903;-70
2022/03/30 01:49:31;;;;;;;15.82;4.45;;;13.70;99.90;;;;;;5014586;28;20064;-70
2022/03/30 01:51:58;;;;;;;15.50;4.78;;;13.70;99.90;;;;;;5019243;28;20769;-71
2022/03/30 01:54:26;;;;;;;15.35;5.10;;;13.60;99.90;;;;;;5015464;28;20053;-70
2022/03/30 01:56:54;;;;;;;15.25;5.00;;;13.60;99.90;;;;;;5034314;28;20038;-70
2022/03/30 01:59:21;;;;;;;16.38;4.45;;;13.50;99.90;;;;;;5030131;28;20041;-71
2022/03/30 02:01:47;;;;;;;18.77;4.78;;;13.50;99.90;;;;;;5001176;28;20442;-70
2022/03/30 02:04:14;;;;;;;13.95;4.45;;;13.50;99.90;;;;;;5020197;28;20096;-71
2022/03/30 02:06:41;;;;;;;18.83;4.55;;;13.60;99.90;;;;;;5018707;28;20496;-71
2022/03/30 02:09:08;;;;;;;12.80;4.70;;;13.50;99.90;;;;;;5032728;28;20088;-70
2022/03/30 02:11:34;;;;;;;14.27;4.72;;;13.50;99.90;;;;;;5018480;28;20038;-71
2022/03/30 02:14:01;;;;;;;14.38;4.38;;;13.50;99.90;;;;;;5035137;28;20042;-69
2022/03/30 02:16:27;;;;;;;17.98;5.35;;;13.50;99.90;;;;;;5003057;28;20041;-70
2022/03/30 02:18:54;;;;;;;13.07;4.90;;;13.50;99.90;;;;;;5019705;28;20049;-70
2022/03/30 02:21:20;;;;;;;19.67;5.65;;;13.50;99.90;;;;;;5020997;28;20048;-71
2022/03/30 02:23:47;;;;;;;20.27;5.13;;;13.50;99.90;;;;;;5017580;28;20136;-70
2022/03/30 02:26:17;;;;;;;18.80;4.78;;;13.50;99.90;;;;;;5016042;28;20030;-69
2022/03/30 02:28:45;;;;;;;15.95;4.63;;;13.50;99.90;;;;;;5037165;28;20038;-70
2022/03/30 02:31:12;;;;;;;17.50;5.00;;;13.50;99.90;;;;;;5019643;28;20044;-70
2022/03/30 02:33:38;;;;;;;13.65;4.70;;;13.50;99.90;;;;;;5003151;28;20271;-71
2022/03/30 02:36:05;;;;;;;19.05;4.97;;;13.50;99.90;;;;;;5000449;28;20041;-70
2022/03/30 02:38:31;;;;;;;17.23;4.53;;;13.50;99.90;;;;;;5019385;28;20353;-70
2022/03/30 02:40:57;;;;;;;19.55;5.22;;;13.60;99.90;;;;;;5005796;28;20038;-70
2022/03/30 02:43:24;;;;;;;12.00;4.15;;;13.60;99.90;;;;;;5036212;28;20595;-70
2022/03/30 02:45:50;;;;;;;21.15;4.93;;;13.60;99.90;;;;;;5014972;28;20030;-69
2022/03/30 02:48:18;;;;;;;12.88;4.35;;;13.60;99.90;;;;;;5030079;28;20030;-70
2022/03/30 02:50:49;;;;;;;19.15;4.50;;;13.70;99.90;;;;;;5033609;28;20053;-71
2022/03/30 02:53:18;;;;;;;13.57;4.60;;;13.60;99.90;;;;;;5033762;28;20452;-71
2022/03/30 02:55:44;;;;;;;13.45;4.82;;;13.60;99.90;;;;;;5021436;28;20037;-71
2022/03/30 02:58:11;;;;;;;16.60;4.57;;;13.70;99.90;;;;;;5030068;28;20618;-71
2022/03/30 03:00:38;;;;;;;15.20;4.78;;;13.70;99.90;;;;;;5020153;28;20509;-70
2022/03/30 03:03:04;;;;;;;16.25;4.85;;;13.70;99.90;;;;;;5016795;28;20037;-70
2022/03/30 03:05:32;;;;;;;17.10;4.88;;;13.60;99.90;;;;;;5034004;28;20037;-70
2022/03/30 03:08:04;;;;;;;18.50;5.28;;;13.60;99.90;;;;;;5003068;28;20041;-71
2022/03/30 03:10:33;;;;;;;14.82;4.78;;;13.60;99.90;;;;;;5018228;28;20099;-70
2022/03/30 03:12:59;;;;;;;17.35;5.00;;;13.60;99.90;;;;;;5033458;28;20117;-70
2022/03/30 03:15:25;;;;;;;13.25;4.80;;;13.60;99.90;;;;;;5021989;28;20083;-71
2022/03/30 03:17:52;;;;;;;17.67;5.43;;;13.60;99.90;;;;;;5018834;28;20465;-70
2022/03/30 03:20:18;;;;;;;14.85;4.97;;;13.60;99.90;;;;;;5030573;28;20037;-70
2022/03/30 03:22:44;;;;;;;17.20;4.80;;;13.60;99.90;;;;;;5019246;28;20374;-71
2022/03/30 03:25:11;;;;;;;13.82;4.55;;;13.60;99.90;;;;;;5020643;28;20041;-71
2022/03/30 03:27:38;;;;;;;24.58;5.43;;;13.60;99.90;;;;;;5030853;28;20120;-71
2022/03/30 03:30:06;;;;;;;16.33;4.97;;;13.60;99.90;;;;;;5030890;28;20511;-71
2022/03/30 03:32:32;;;;;;;14.70;4.78;;;13.50;99.90;;;;;;5018001;28;20057;-70
2022/03/30 03:34:58;;;;;;;18.15;4.80;;;13.50;99.90;;;;;;5019995;28;20087;-71
2022/03/30 03:37:24;;;;;;;16.65;5.22;;;13.40;99.90;;;;;;5021487;28;20524;-70
2022/03/30 03:39:50;;;;;;;20.15;4.82;;;13.30;99.90;;;;;;5015699;28;20025;-71
2022/03/30 03:42:16;;;;;;;16.10;5.63;;;13.20;99.90;;;;;;5015466;28;20062;-70
2022/03/30 03:44:43;;;;;;;16.15;4.93;;;13.20;99.90;;;;;;5018329;28;20079;-70
2022/03/30 03:47:09;;;;;;;17.67;4.80;;;13.20;99.90;;;;;;5018626;28;20041;-71
2022/03/30 03:49:38;;;;;;;16.50;4.75;;;13.30;99.90;;;;;;5018360;28;20045;-70
2022/03/30 03:52:06;;;;;;;16.88;5.10;;;13.20;99.90;;;;;;5015906;28;20380;-70
2022/03/30 03:54:32;;;;;;;16.50;5.28;;;13.10;99.90;;;;;;5031424;28;20116;-69
2022/03/30 03:56:58;;;;;;;16.13;5.30;;;13.00;99.90;;;;;;5016509;28;20096;-70
2022/03/30 03:59:24;;;;;;;13.95;4.93;;;13.00;99.90;;;;;;5019158;28;20046;-70
2022/03/30 04:01:51;;;;;;;14.15;4.28;;;12.90;99.90;;;;;;5017059;28;20042;-71
2022/03/30 04:04:18;;;;;;;12.07;4.78;;;12.90;99.90;;;;;;5017031;28;20073;-71
2022/03/30 04:06:43;;;;;;;16.38;5.00;;;12.90;99.90;;;;;;5016298;28;20447;-71
2022/03/30 04:09:10;;;;;;;18.67;4.70;;;12.90;99.90;;;;;;5016764;28;20053;-70
2022/03/30 04:11:36;;;;;;;17.20;5.00;;;12.90;99.90;;;;;;5029528;28;20422;-70
2022/03/30 04:14:03;;;;;;;17.05;5.07;;;12.90;99.90;;;;;;5019142;28;20886;-70
2022/03/30 04:16:29;;;;;;;14.82;4.78;;;12.90;99.90;;;;;;5033435;28;20369;-70
2022/03/30 04:18:56;;;;;;;17.52;4.57;;;12.90;99.90;;;;;;5016794;28;20033;-71
2022/03/30 04:21:23;;;;;;;15.43;5.18;;;12.90;99.90;;;;;;5015451;28;20041;-70
2022/03/30 04:23:49;;;;;;;14.40;4.53;;;12.80;99.90;;;;;;5034650;28;20045;-72
2022/03/30 04:26:15;;;;;;;16.35;4.60;;;12.90;99.90;;;;;;5016335;28;20451;-71
2022/03/30 04:28:41;;;;;;;23.80;5.75;;;12.80;99.90;;;;;;5019394;28;20038;-71
2022/03/30 04:31:13;;;;;;;19.88;5.55;;;12.70;99.90;;;;;;5017690;28;20088;-71
2022/03/30 04:33:40;;;;;;;18.60;5.38;;;12.70;99.90;;;;;;5016204;28;20042;-70
2022/03/30 04:36:06;;;;;;;18.08;5.07;;;12.70;99.90;;;;;;4994840;28;20045;-70
2022/03/30 04:38:33;;;;;;;19.17;5.07;;;12.70;99.90;;;;;;5019182;28;20034;-70
2022/03/30 04:41:00;;;;;;;17.77;4.78;;;12.60;99.90;;;;;;5016429;28;20092;-70
2022/03/30 04:43:27;;;;;;;20.45;5.45;;;12.60;99.90;;;;;;5014441;28;20041;-70
2022/03/30 04:45:54;;;;;;;17.27;5.10;;;12.50;99.90;;;;;;5030303;28;20042;-70
2022/03/30 04:48:22;;;;;;;19.83;5.85;;;12.60;99.90;;;;;;5031417;28;20038;-70
2022/03/30 04:50:50;;;;;;;18.33;4.80;;;12.70;99.90;;;;;;5014778;28;20030;-71
2022/03/30 04:53:16;;;;;;;18.88;4.63;;;12.80;99.90;;;;;;5036722;28;20045;-71
2022/03/30 04:55:42;;;;;;;18.80;5.13;;;12.80;99.90;;;;;;5017299;28;20152;-71
2022/03/30 04:58:08;;;;;;;17.80;4.68;;;12.90;99.90;;;;;;5029055;28;20079;-71
2022/03/30 05:00:36;;;;;;;19.17;5.13;;;13.00;99.90;;;;;;5018695;28;20053;-71
2022/03/30 05:03:03;;;;;;;15.10;4.45;;;13.10;99.90;;;;;;5015824;28;20440;-71
2022/03/30 05:05:29;;;;;;;19.58;4.93;;;13.20;99.90;;;;;;4999305;28;20030;-71
2022/03/30 05:07:58;;;;;;;19.63;4.85;;;13.10;99.90;;;;;;5017961;28;20065;-71
2022/03/30 05:10:24;;;;;;;18.63;5.18;;;12.90;99.90;;;;;;5003905;28;20029;-71
2022/03/30 05:12:50;;;;;;;16.67;4.75;;;12.70;99.90;;;;;;5012977;28;20049;-69
2022/03/30 05:15:16;;;;;;;22.83;5.40;;;12.70;99.90;;;;;;5030647;28;20080;-71
2022/03/30 05:17:44;;;;;;;15.65;4.93;;;12.60;99.90;;;;;;5017029;28;20368;-71
2022/03/30 05:20:16;;;;;;;17.00;5.25;;;12.70;99.90;;;;;;5013761;28;20034;-71
2022/03/30 05:22:44;;;;;;;15.77;4.80;;;12.70;99.90;;;;;;5001784;28;20046;-70
2022/03/30 05:25:11;;;;;;;17.05;5.43;;;12.60;99.90;;;;;;5015121;28;20038;-70
2022/03/30 05:27:42;;;;;;;16.48;5.93;;;12.40;99.90;;;;;;5016024;28;21010;-71
2022/03/30 05:30:09;;;;;;;14.10;5.00;;;12.30;99.90;;;;;;5015645;28;20088;-71
2022/03/30 05:32:35;;;;;;;17.23;6.55;;;12.20;99.90;;;;;;5016167;28;20176;-71
2022/03/30 05:35:03;;;;;;;18.60;5.25;;;12.10;99.90;;;;;;5022991;28;20117;-72
2022/03/30 05:37:30;;;;;;;16.80;4.95;;;11.80;99.90;;;;;;5032214;28;20153;-71
2022/03/30 05:39:56;;;;;;;14.52;4.30;;;11.60;99.90;;;;;;5018519;28;20091;-71
2022/03/30 05:42:23;;;;;;;17.05;5.00;;;11.60;99.90;;;;;;5018214;28;20543;-71
2022/03/30 05:44:50;;;;;;;13.65;4.30;;;11.40;99.90;;;;;;5034330;28;20088;-71
2022/03/30 05:47:16;;;;;;;15.02;4.82;;;11.40;99.90;;;;;;5019742;28;20041;-70
2022/03/30 05:49:43;;;;;;;16.88;6.85;;;11.30;99.90;;;;;;5019882;28;20057;-70
2022/03/30 05:52:10;;;;;;;13.00;5.88;;;11.30;99.90;;;;;;5020461;28;21158;-70
2022/03/30 05:54:37;;;;;;;15.93;5.28;;;11.20;99.90;;;;;;5021343;28;20045;-71
2022/03/30 05:57:05;;;;;;;11.98;5.07;;;11.20;99.90;;;;;;5019807;28;20034;-71
2022/03/30 05:59:37;;;;;;;16.05;4.53;;;11.20;99.90;;;;;;5021202;28;20099;-71
2022/03/30 06:02:06;;;;;;;12.80;5.03;;;11.10;99.90;;;;;;5020120;28;20274;-71
2022/03/30 06:04:32;;;;;;;20.65;7.38;;;11.10;99.90;;;;;;5017791;28;20543;-70
2022/03/30 06:06:59;;;;;;;17.05;6.80;;;11.10;99.90;;;;;;5018831;28;20045;-70
2022/03/30 06:09:27;;;;;;;15.10;4.60;;;11.10;99.90;;;;;;5020430;28;20041;-70
2022/03/30 06:11:53;;;;;;;18.83;5.80;;;11.00;99.90;;;;;;5001093;28;20479;-71
2022/03/30 06:14:20;;;;;;;19.60;5.20;;;10.90;99.90;;;;;;5021785;28;20485;-71
2022/03/30 06:16:48;;;;;;;14.82;5.85;;;10.80;99.90;;;;;;5007591;28;20061;-71
2022/03/30 06:19:14;;;;;;;12.20;5.20;;;10.70;99.90;;;;;;5034099;28;20048;-71
2022/03/30 06:21:42;;;;;;;19.35;5.28;;;10.70;99.90;;;;;;5019433;28;20042;-71
2022/03/30 06:24:12;;;;;;;15.43;5.30;;;10.60;99.90;;;;;;5020043;28;20033;-71
2022/03/30 06:26:39;;;;;;;12.85;5.03;;;10.60;99.90;;;;;;5018739;28;20396;-71
2022/03/30 06:29:07;;;;;;;17.55;5.78;;;10.50;99.90;;;;;;5019415;28;20030;-71
2022/03/30 06:31:33;;;;;;;12.05;5.05;;;10.50;99.90;;;;;;5031888;28;20042;-72
2022/03/30 06:33:59;;;;;;;12.02;5.50;;;10.40;99.90;;;;;;5023657;28;20052;-71
2022/03/30 06:36:25;;;;;;;17.80;6.03;;;10.40;99.90;;;;;;5022433;28;20029;-71
2022/03/30 06:38:52;;;;;;;16.13;5.30;;;10.40;99.90;;;;;;5015643;28;20048;-71
2022/03/30 06:41:18;;;;;;;16.75;5.82;;;10.40;99.90;;;;;;5001166;28;20091;-72
2022/03/30 06:43:48;;;;;;;9.77;4.85;;;10.40;99.90;;;;;;5010259;28;20460;-74
2022/03/30 06:46:17;;;;;;;11.68;5.50;;;10.40;99.90;;;;;;5018642;28;20034;-73
2022/03/30 06:48:47;;;;;;;14.25;5.78;;;10.50;99.90;;;;;;5007312;28;20037;-72
2022/03/30 06:51:15;;;;;;;14.48;5.63;;;10.50;99.90;;;;;;5040154;28;20162;-73
2022/03/30 06:53:41;;;;;;;14.20;6.03;;;10.60;99.90;;;;;;5020071;28;20045;-72
2022/03/30 06:56:08;;;;;;;14.05;5.53;;;10.60;99.90;;;;;;5014400;28;20045;-74
2022/03/30 06:58:35;;;;;;;12.60;5.30;;;10.60;99.90;;;;;;5017288;28;20058;-72
2022/03/30 07:01:01;;;;;;;13.27;5.57;;;10.60;99.90;;;;;;5003679;28;20073;-74
2022/03/30 07:03:28;;;;;;;13.02;5.78;;;10.60;99.90;;;;;;5033482;28;20034;-72
2022/03/30 07:05:55;;;;;;;15.18;6.40;;;10.70;99.90;;;;;;5018800;28;20097;-72
2022/03/30 07:11:08;;;;;;;15.75;5.82;;;10.70;99.90;;;;;;5016203;28;20048;-72
2022/03/30 07:13:34;;;;;;;16.17;6.25;;;10.70;99.90;;;;;;5036843;28;20053;-72
2022/03/30 07:16:00;;;;;;;17.05;6.45;;;10.70;99.90;;;;;;5017621;28;20061;-73
2022/03/30 07:18:27;;;;;;;13.32;6.45;;;10.70;99.90;;;;;;5022216;28;20624;-73
2022/03/30 07:20:53;;;;;;;13.73;6.60;;;10.70;99.90;;;;;;4994576;28;20111;-72
2022/03/30 07:23:20;;;;;;;18.70;7.07;;;10.70;99.90;;;;;;5006106;28;20057;-74
2022/03/30 07:25:47;;;;;;;18.23;7.78;;;10.70;99.90;;;;;;5018419;28;20117;-74
2022/03/30 07:28:16;;;;;;;18.33;7.10;;;10.60;99.90;;;;;;4997520;28;20045;-72
2022/03/30 07:30:48;;;;;;;14.75;6.85;;;10.70;99.90;;;;;;5016484;28;20053;-74
2022/03/30 07:33:17;;;;;;;16.42;7.10;;;10.70;99.90;;;;;;5002909;28;20049;-71
2022/03/30 07:35:46;;;;;;;14.95;7.10;;;10.70;99.90;;;;;;5015221;28;20389;-71
2022/03/30 07:38:19;;;;;;;16.77;8.02;;;10.70;99.90;;;;;;5010471;28;20034;-71
2022/03/30 07:40:46;;;;;;;18.58;6.88;;;10.80;99.90;;;;;;5007896;28;20041;-71
2022/03/30 07:43:14;;;;;;;22.15;8.48;;;10.70;99.90;;;;;;5006040;28;20640;-71
2022/03/30 07:45:42;;;;;;;17.63;8.30;;;10.80;99.90;;;;;;5017836;28;20057;-71
2022/03/30 07:48:08;;;;;;;16.58;8.32;;;10.90;99.90;;;;;;4999447;28;20091;-72
2022/03/30 07:50:36;;;;;;;17.42;8.40;;;10.80;99.90;;;;;;5018697;28;20038;-72
2022/03/30 07:53:03;;;;;;;16.88;8.15;;;10.90;99.90;;;;;;4997221;28;20038;-73
2022/03/30 07:55:29;;;;;;;18.02;8.48;;;10.90;99.90;;;;;;4999758;28;20571;-73
2022/03/30 07:57:56;;;;;;;19.30;8.52;;;10.90;99.90;;;;;;5018050;28;20535;-72
2022/03/30 08:00:23;;;;;;;19.45;8.82;;;10.90;99.90;;;;;;5019695;28;20037;-72
2022/03/30 08:02:49;;;;;;;15.25;8.27;;;11.00;99.90;;;;;;5034055;28;20041;-71
2022/03/30 08:05:16;;;;;;;18.35;9.35;;;11.00;99.90;;;;;;5019118;28;20053;-72
2022/03/30 08:07:45;;;;;;;18.55;8.80;;;11.00;99.90;;;;;;5017632;28;20091;-72
2022/03/30 08:10:12;;;;;;;20.45;8.40;;;11.00;99.90;;;;;;5018979;28;20033;-72
2022/03/30 08:12:42;;;;;;;14.30;8.80;;;11.00;99.90;;;;;;5034456;28;20026;-71
2022/03/30 08:15:09;;;;;;;18.42;7.25;;;11.10;99.90;;;;;;5014598;28;20036;-73
2022/03/30 08:17:37;;;;;;;17.50;7.63;;;11.10;99.90;;;;;;5019226;28;20086;-71
2022/03/30 08:20:04;;;;;;;13.30;8.25;;;11.20;99.90;;;;;;5002155;28;20616;-72
2022/03/30 08:22:30;;;;;;;16.20;8.50;;;11.20;99.90;;;;;;5030169;28;20056;-72
2022/03/30 08:25:07;;;;;;;18.50;7.90;;;11.20;99.90;;;;;;5019539;28;20048;-71
2022/03/30 08:27:35;;;;;;;13.10;8.20;;;11.20;99.90;;;;;;4999010;28;20060;-73
2022/03/30 08:30:05;;;;;;;17.55;8.65;;;11.40;99.90;;;;;;5018171;28;20167;-72
2022/03/30 08:32:32;;;;;;;12.25;6.57;;;11.40;99.90;;;;;;5015296;28;20034;-71
2022/03/30 08:34:59;;;;;;;11.88;6.13;;;11.50;99.90;;;;;;5029901;28;20030;-72
2022/03/30 08:37:25;;;;;;;13.60;6.20;;;11.40;99.90;;;;;;5015874;28;20461;-71
2022/03/30 08:39:53;;;;;;;10.95;5.80;;;11.50;99.90;;;;;;5018766;28;20882;-71
2022/03/30 08:42:21;;;;;;;10.63;5.32;;;11.50;99.90;;;;;;5015646;28;20509;-71
2022/03/30 08:44:47;;;;;;;13.35;5.00;;;11.50;99.90;;;;;;5014797;28;20042;-71
2022/03/30 08:47:14;;;;;;;10.05;4.90;;;11.50;99.90;;;;;;5018887;28;20060;-71
2022/03/30 08:49:42;;;;;;;8.45;4.25;;;11.60;99.90;;;;;;5020111;28;20034;-72
2022/03/30 08:52:10;;;;;;;11.23;5.05;;;11.60;99.90;;;;;;5002695;28;20073;-72
2022/03/30 08:54:41;;;;;;;6.47;4.22;;;11.60;99.90;;;;;;5014418;28;20041;-72
2022/03/30 08:57:08;;;;;;;8.15;4.43;;;11.60;99.90;;;;;;5030186;28;20060;-71
2022/03/30 08:59:33;;;;;;;12.98;4.50;;;11.70;99.90;;;;;;5014833;28;20516;-72
2022/03/30 09:02:00;;;;;;;8.70;4.47;;;11.70;99.90;;;;;;5018330;28;20045;-72
2022/03/30 09:04:26;;;;;;;10.48;4.80;;;11.70;99.90;;;;;;4999926;28;20408;-72
2022/03/30 09:06:53;;;;;;;9.93;4.70;;;11.70;99.90;;;;;;5001117;28;20121;-72
2022/03/30 09:09:31;;;;;;;8.52;4.30;;;11.80;99.90;;;;;;5017267;28;20056;-72
2022/03/30 09:12:00;;;;;;;7.03;4.55;;;11.80;99.90;;;;;;5017796;28;20398;-72
2022/03/30 09:14:32;;;;;;;10.27;4.65;;;11.80;99.90;;;;;;5027788;28;20117;-72
2022/03/30 09:17:01;;;;;;;8.07;4.32;;;11.80;99.90;;;;;;5030765;28;20045;-72
2022/03/30 09:19:28;;;;;;;8.85;4.38;;;11.80;99.90;;;;;;5014759;28;20034;-72
2022/03/30 09:21:59;;;;;;;9.30;4.00;;;11.70;99.90;;;;;;5018347;28;20033;-72
2022/03/30 09:24:28;;;;;;;9.88;5.15;;;11.80;99.90;;;;;;5030429;28;20110;-72
2022/03/30 09:26:55;;;;;;;9.43;4.30;;;11.80;99.90;;;;;;5019367;28;20046;-72
2022/03/30 09:29:24;;;;;;;7.40;4.30;;;11.80;99.90;;;;;;5020443;28;20480;-72
2022/03/30 09:31:52;;;;;;;8.32;4.65;;;11.80;99.90;;;;;;5030977;28;20030;-72
2022/03/30 09:34:20;;;;;;;8.75;4.40;;;12.00;99.90;;;;;;5014141;28;20131;-71
2022/03/30 09:36:51;;;;;;;14.23;5.78;;;11.90;99.90;;;;;;5017162;28;20050;-72
2022/03/30 09:39:34;;;;;;;9.13;5.35;;;11.90;99.90;;;;;;5014043;28;20042;-72
2022/03/30 09:42:02;;;;;;;10.85;5.40;;;11.90;99.90;;;;;;5016372;28;20041;-72
2022/03/30 09:44:30;;;;;;;9.68;4.90;;;11.80;99.90;;;;;;5006416;28;20099;-72
2022/03/30 09:47:06;;;;;;;10.48;4.65;;;11.60;99.90;;;;;;5017613;28;20077;-71
2022/03/30 09:49:34;;;;;;;10.10;4.70;;;11.70;99.90;;;;;;5032284;28;20037;-72
2022/03/30 09:52:01;;;;;;;9.57;4.47;;;11.70;99.90;;;;;;5012956;28;20080;-71
2022/03/30 09:54:40;;;;;;;10.20;4.25;;;11.60;99.90;;;;;;5022871;28;20037;-71
2022/03/30 09:57:20;;;;;;;9.80;4.65;;;11.60;99.90;;;;;;5015443;28;20087;-73
2022/03/30 10:00:06;;;;;;;9.90;4.57;;;11.60;99.90;;;;;;5030009;28;20128;-72
2022/03/30 10:02:37;;;;;;;13.00;4.80;;;11.60;99.90;;;;;;5026928;28;20045;-71
2022/03/30 10:05:05;;;;;;;8.05;4.53;;;11.60;99.90;;;;;;5016725;28;20041;-72
2022/03/30 10:07:32;;;;;;;10.60;5.20;;;11.70;99.90;;;;;;4996839;28;20465;-72
2022/03/30 10:10:00;;;;;;;10.75;4.95;;;11.80;99.90;;;;;;5036514;28;20042;-72
2022/03/30 10:12:27;;;;;;;7.57;4.63;;;11.80;99.90;;;;;;5028718;28;20033;-71
2022/03/30 10:14:56;;;;;;;8.93;4.28;;;11.80;99.90;;;;;;5008319;28;20393;-72
2022/03/30 10:17:24;;;;;;;10.68;4.13;;;11.90;99.90;;;;;;5019170;28;20056;-72
2022/03/30 10:19:52;;;;;;;8.25;4.05;;;11.90;99.90;;;;;;5016623;28;20033;-71
2022/03/30 10:22:24;;;;;;;7.97;3.60;;;11.90;99.90;;;;;;5019473;28;20048;-73
2022/03/30 10:25:27;;;;;;;7.75;4.18;;;12.00;99.90;;;;;;5014229;28;20132;-72
2022/03/30 10:28:14;;;;;;;7.75;3.40;;;11.90;99.90;;;;;;5038371;28;20042;-72
2022/03/30 10:30:43;;;;;;;9.45;3.88;;;12.10;99.90;;;;;;5034393;28;20034;-71
2022/03/30 10:33:10;;;;;;;7.78;3.10;;;12.10;99.90;;;;;;5010397;28;20104;-72
2022/03/30 10:35:47;;;;;;;6.75;3.58;;;12.20;99.90;;;;;;5022552;28;20402;-73
2022/03/30 10:38:15;;;;;;;8.25;3.00;;;12.20;99.90;;;;;;5034359;28;20038;-73
2022/03/30 10:40:43;;;;;;;7.70;2.97;;;12.30;99.90;;;;;;5018444;28;20500;-73
2022/03/30 10:43:30;;;;;;;13.60;3.28;;;12.50;99.90;;;;;;5019094;28;20054;-73
2022/03/30 10:46:03;;;;;;;6.22;2.88;;;12.60;99.90;;;;;;5020911;28;20181;-72
2022/03/30 10:48:29;;;;;;;;;;;12.60;99.90;;;;;;5019627;28;20042;-73
2022/03/30 10:51:01;;;;;;;5.95;2.88;;;12.70;99.90;;;;;;5013816;28;19920;-73
2022/03/30 10:53:39;;;;;;;10.37;3.50;;;12.70;99.90;;;;;;5030664;28;20034;-73
2022/03/30 10:56:15;;;;;;;6.43;3.45;;;12.50;99.90;;;;;;4998441;28;20036;-73
2022/03/30 10:58:53;;;;;;;6.20;3.13;;;12.40;99.90;;;;;;5021711;28;20033;-73
2022/03/30 11:01:22;;;;;;;8.20;2.92;;;12.40;99.90;;;;;;5020672;28;20443;-73
2022/03/30 11:04:02;;;;;;;5.07;2.72;;;12.30;99.90;;;;;;5033886;28;20056;-73
2022/03/30 11:06:30;;;;;;;8.57;3.30;;;12.20;99.90;;;;;;5017221;28;20037;-73
2022/03/30 11:08:58;;;;;;;8.20;3.05;;;12.20;99.90;;;;;;5003570;28;20149;-72
2022/03/30 11:11:29;;;;;;;6.57;3.03;;;12.30;99.90;;;;;;5033513;28;20052;-72
2022/03/30 11:14:45;;;;;;;7.57;3.85;;;12.20;99.90;;;;;;5021043;28;20045;-72
2022/03/30 11:17:29;;;;;;;8.77;3.60;;;12.10;99.90;;;;;;5015680;28;20034;-73
2022/03/30 11:19:58;;;;;;;9.43;3.50;;;12.10;99.90;;;;;;5019915;28;20041;-73
2022/03/30 11:22:30;;;;;;;7.18;3.60;;;12.10;99.90;;;;;;4996136;28;20119;-72
2022/03/30 11:25:08;;;;;;;9.52;3.40;;;12.00;99.90;;;;;;5007816;28;20131;-73
2022/03/30 11:27:34;;;;;;;9.35;3.53;;;12.00;99.90;;;;;;5028274;28;20037;-73
2022/03/30 11:30:12;;;;;;;11.50;3.80;;;12.00;99.90;;;;;;4998046;28;20057;-72
2022/03/30 11:32:41;;;;;;;8.00;4.55;;;12.10;99.90;;;;;;5025681;28;20068;-75
2022/03/30 11:35:10;;;;;;;9.68;4.40;;;12.30;99.90;;;;;;4993577;28;20052;-73
2022/03/30 11:37:42;;;;;;;6.20;3.80;;;12.30;99.90;;;;;;5003359;28;20524;-72
2022/03/30 11:40:14;;;;;;;9.20;4.23;;;12.40;99.90;;;;;;5003048;28;20037;-73
2022/03/30 11:42:51;;;;;;;7.80;4.20;;;12.50;99.90;;;;;;5007214;28;20118;-74
2022/03/30 11:45:22;;;;;;;8.90;4.20;;;12.50;99.90;;;;;;4993837;28;20033;-74
2022/03/30 11:47:52;;;;;;;7.40;3.90;;;12.60;99.90;;;;;;5005280;28;20159;-72
2022/03/30 11:50:39;;;;;;;8.98;4.15;;;12.60;99.90;;;;;;5020777;28;20116;-73
2022/03/30 11:53:11;;;;;;;9.23;4.50;;;12.70;99.90;;;;;;5021109;28;20496;-72
2022/03/30 11:55:51;;;;;;;8.55;4.30;;;13.00;99.90;;;;;;5011886;28;20551;-76
2022/03/30 11:58:37;;;;;;;9.07;5.00;;;13.10;99.90;;;;;;5000158;28;20068;-73
2022/03/30 12:01:07;;;;;;;10.90;4.63;;;13.20;99.90;;;;;;5006144;28;20147;-72
2022/03/30 12:03:34;;;;;;;8.95;4.30;;;13.30;99.90;;;;;;5005577;28;20124;-72
2022/03/30 12:06:02;;;;;;;8.82;4.00;;;13.40;99.90;;;;;;5035206;28;20330;-73
2022/03/30 12:08:38;;;;;;;8.00;3.92;;;13.50;99.90;;;;;;5021959;28;20049;-73
2022/03/30 12:11:04;;;;;;;9.73;4.65;;;13.80;99.90;;;;;;5031704;28;20048;-74
2022/03/30 12:13:34;;;;;;;8.00;4.28;;;14.10;99.90;;;;;;5023826;28;20534;-72
2022/03/30 12:16:02;;;;;;;7.88;4.70;;;14.00;99.90;;;;;;5016843;28;20040;-73
2022/03/30 12:18:30;;;;;;;7.65;4.97;;;14.40;99.90;;;;;;5015414;28;20041;-73
2022/03/30 12:21:00;;;;;;;9.88;4.72;;;14.40;99.90;;;;;;5007148;28;20034;-74
2022/03/30 12:23:26;;;;;;;8.75;4.63;;;14.90;99.90;;;;;;5019319;28;20099;-71
2022/03/30 12:25:53;;;;;;;8.13;4.63;;;14.80;99.90;;;;;;4999892;28;20396;-74
2022/03/30 12:28:31;;;;;;;10.25;4.80;;;15.10;99.90;;;;;;5017460;28;20863;-75
2022/03/30 12:30:59;;;;;;;8.77;4.40;;;15.70;99.90;;;;;;5035117;28;20052;-75
2022/03/30 12:33:25;;;;;;;8.63;4.35;;;16.30;99.90;;;;;;5019864;28;20121;-73
2022/03/30 12:35:52;;;;;;;8.80;4.60;;;17.00;99.90;;;;;;5019408;28;20042;-73
2022/03/30 12:38:21;;;;;;;8.57;4.47;;;17.40;99.90;;;;;;5018401;28;20037;-72
2022/03/30 12:40:52;;;;;;;10.68;5.03;;;17.70;99.90;;;;;;5002988;28;21337;-73
2022/03/30 12:43:29;;;;;;;9.45;5.40;;;18.00;99.90;;;;;;5032524;28;20049;-73
2022/03/30 12:45:57;;;;;;;15.27;5.70;;;18.30;99.90;;;;;;5004947;28;20037;-73
2022/03/30 12:48:34;;;;;;;13.98;5.78;;;18.50;99.90;;;;;;5017392;28;20091;-72
2022/03/30 12:51:02;;;;;;;10.82;5.47;;;18.70;99.90;;;;;;5016556;28;20048;-73
2022/03/30 12:53:34;;;;;;;11.45;5.25;;;19.30;99.90;;;;;;5029971;28;20040;-73